createdAt,value
2023-05-20T00:00:41.600Z,17.11
2023-05-20T00:02:16.072Z,17.56
2023-05-20T00:03:49.262Z,18.38
2023-05-20T00:05:24.701Z,19.11
2023-05-20T00:07:05.283Z,19.61
2023-05-20T00:08:26.920Z,19.43
2023-05-20T00:10:00.837Z,18.67
2023-05-20T00:11:53.889Z,17.82
2023-05-20T00:13:47.682Z,17.13
2023-05-20T00:15:12.460Z,17.61
2023-05-20T00:16:56.047Z,18.36
2023-05-20T00:18:18.033Z,19.20
2023-05-20T00:19:53.712Z,19.71
2023-05-20T00:21:29.952Z,19.42
2023-05-20T00:23:15.245Z,18.65
2023-05-20T00:24:55.756Z,17.81
2023-05-20T00:26:42.731Z,17.21
2023-05-20T00:28:28.070Z,17.68
2023-05-20T00:30:04.230Z,18.63
2023-05-20T00:31:49.475Z,19.36
2023-05-20T00:33:19.304Z,19.70
2023-05-20T00:34:55.041Z,19.17
2023-05-20T00:36:46.465Z,18.34
2023-05-20T00:38:31.673Z,17.47
2023-05-20T00:40:06.198Z,17.16
2023-05-20T00:41:50.826Z,17.83
2023-05-20T00:43:27.199Z,18.77
2023-05-20T00:45:03.188Z,19.44
2023-05-20T00:46:48.393Z,19.63
2023-05-20T00:48:13.510Z,19.03
2023-05-20T00:49:59.391Z,18.17
2023-05-20T00:51:46.129Z,17.33
2023-05-20T00:53:35.693Z,17.30
2023-05-20T00:55:16.883Z,18.12
2023-05-20T00:56:53.084Z,18.94
2023-05-20T00:58:38.197Z,19.61
2023-05-20T01:00:23.786Z,19.53
2023-05-20T01:01:59.555Z,18.75
2023-05-20T01:03:33.379Z,17.94
2023-05-20T01:05:14.570Z,17.33
2023-05-20T01:06:55.255Z,17.55
2023-05-20T01:08:28.992Z,18.44
2023-05-20T01:10:03.224Z,19.15
2023-05-20T01:11:48.245Z,19.78
2023-05-20T01:13:22.297Z,19.41
2023-05-20T01:14:44.690Z,18.74
2023-05-20T01:16:14.023Z,18.04
2023-05-20T01:17:46.135Z,17.34
2023-05-20T01:19:10.710Z,17.26
2023-05-20T01:20:44.038Z,17.93
2023-05-20T01:22:20.886Z,18.71
2023-05-20T01:24:06.097Z,19.50
2023-05-20T01:25:29.844Z,19.77
2023-05-20T01:26:59.054Z,19.26
2023-05-20T01:28:33.301Z,18.55
2023-05-20T01:29:58.181Z,17.71
2023-05-20T01:31:42.068Z,17.17
2023-05-20T01:33:07.103Z,17.53
2023-05-20T01:34:52.133Z,18.32
2023-05-20T01:36:38.014Z,19.15
2023-05-20T01:38:09.433Z,19.71
2023-05-20T01:39:47.002Z,19.62
2023-05-20T01:41:20.795Z,18.77
2023-05-20T01:43:05.924Z,17.91
2023-05-20T01:44:47.010Z,17.23
2023-05-20T01:46:18.748Z,17.49
2023-05-20T01:47:50.851Z,18.21
2023-05-20T01:49:22.837Z,19.01
2023-05-20T01:50:56.238Z,19.61
2023-05-20T01:52:32.132Z,19.67
2023-05-20T01:54:07.851Z,19.08
2023-05-20T01:55:41.541Z,18.13
2023-05-20T01:57:22.505Z,17.39
2023-05-20T01:58:53.298Z,17.34
2023-05-20T02:00:48.012Z,18.04
2023-05-20T02:02:24.697Z,18.97
2023-05-20T02:03:46.916Z,19.60
2023-05-20T02:05:08.955Z,19.75
2023-05-20T02:06:30.638Z,19.29
2023-05-20T02:08:16.090Z,18.48
2023-05-20T02:09:46.114Z,17.72
2023-05-20T02:11:22.035Z,17.26
2023-05-20T02:12:47.829Z,17.70
2023-05-20T02:14:19.155Z,18.55
2023-05-20T02:15:51.934Z,19.24
2023-05-20T02:17:37.420Z,19.85
2023-05-20T02:19:24.708Z,19.49
2023-05-20T02:21:10.242Z,18.61
2023-05-20T02:22:43.714Z,17.77
2023-05-20T02:24:29.322Z,17.37
2023-05-20T02:26:05.144Z,17.96
2023-05-20T02:27:38.597Z,18.72
2023-05-20T02:29:23.984Z,19.52
2023-05-20T02:30:52.835Z,19.82
2023-05-20T02:32:28.933Z,19.36
2023-05-20T02:34:15.961Z,18.55
2023-05-20T02:36:03.316Z,17.65
2023-05-20T02:37:48.084Z,17.35
2023-05-20T02:39:33.222Z,18.12
2023-05-20T02:41:11.998Z,19.01
2023-05-20T02:42:52.805Z,19.80
2023-05-20T02:44:24.568Z,19.77
2023-05-20T02:46:10.131Z,19.07
2023-05-20T02:47:39.752Z,18.31
2023-05-20T02:49:04.285Z,17.69
2023-05-20T02:50:40.133Z,17.40
2023-05-20T02:52:25.401Z,18.05
2023-05-20T02:54:19.223Z,19.07
2023-05-20T02:55:52.140Z,19.85
2023-05-20T02:57:25.727Z,19.93
2023-05-20T02:59:06.854Z,19.22
2023-05-20T03:00:31.291Z,18.51
2023-05-20T03:01:57.566Z,17.88
2023-05-20T03:03:41.567Z,17.43
2023-05-20T03:05:13.670Z,17.85
2023-05-20T03:06:58.927Z,18.79
2023-05-20T03:08:34.691Z,19.69
2023-05-20T03:10:10.360Z,20.07
2023-05-20T03:11:52.148Z,19.57
2023-05-20T03:13:16.712Z,18.87
2023-05-20T03:14:55.324Z,18.13
2023-05-20T03:16:37.489Z,17.51
2023-05-20T03:18:31.954Z,17.66
2023-05-20T03:20:17.148Z,18.72
2023-05-20T03:21:53.085Z,19.63
2023-05-20T03:23:35.437Z,20.07
2023-05-20T03:25:09.134Z,19.66
2023-05-20T03:26:43.040Z,18.94
2023-05-20T03:28:32.979Z,18.12
2023-05-20T03:30:18.493Z,17.39
2023-05-20T03:32:05.090Z,17.65
2023-05-20T03:33:50.149Z,18.62
2023-05-20T03:35:26.122Z,19.49
2023-05-20T03:37:02.006Z,20.01
2023-05-20T03:38:36.070Z,19.78
2023-05-20T03:40:24.584Z,18.97
2023-05-20T03:41:49.112Z,18.18
2023-05-20T03:43:34.495Z,17.58
2023-05-20T03:45:20.015Z,17.84
2023-05-20T03:47:08.519Z,18.96
2023-05-20T03:48:53.265Z,19.72
2023-05-20T03:50:26.909Z,19.95
2023-05-20T03:51:56.223Z,19.45
2023-05-20T03:53:29.802Z,18.66
2023-05-20T03:55:10.855Z,17.96
2023-05-20T03:56:55.266Z,17.48
2023-05-20T03:58:51.530Z,17.97
2023-05-20T04:00:27.810Z,19.05
2023-05-20T04:02:01.644Z,19.70
2023-05-20T04:03:54.902Z,19.90
2023-05-20T04:05:49.020Z,19.13
2023-05-20T04:07:25.931Z,18.17
2023-05-20T04:09:00.165Z,17.64
2023-05-20T04:10:36.078Z,17.74
2023-05-20T04:12:09.691Z,18.72
2023-05-20T04:13:46.138Z,19.45
2023-05-20T04:15:20.121Z,20.01
2023-05-20T04:17:02.113Z,19.62
2023-05-20T04:18:39.084Z,18.79
2023-05-20T04:20:16.553Z,18.07
2023-05-20T04:21:49.535Z,17.41
2023-05-20T04:23:35.638Z,17.65
2023-05-20T04:25:15.498Z,18.48
2023-05-20T04:26:51.559Z,19.45
2023-05-20T04:28:28.130Z,20.05
2023-05-20T04:30:02.444Z,19.88
2023-05-20T04:31:38.572Z,19.19
2023-05-20T04:33:24.157Z,18.45
2023-05-20T04:35:09.048Z,17.75
2023-05-20T04:36:53.336Z,17.75
2023-05-20T04:38:16.404Z,18.62
2023-05-20T04:40:09.688Z,19.47
2023-05-20T04:41:54.690Z,20.25
2023-05-20T04:43:45.750Z,20.06
2023-05-20T04:45:26.435Z,19.20
2023-05-20T04:46:59.809Z,18.51
2023-05-20T04:48:33.727Z,17.88
2023-05-20T04:50:14.741Z,18.17
2023-05-20T04:51:55.694Z,19.14
2023-05-20T04:53:20.110Z,19.92
2023-05-20T04:55:00.791Z,20.40
2023-05-20T04:56:34.150Z,19.98
2023-05-20T04:58:20.103Z,19.26
2023-05-20T05:00:05.806Z,18.46
2023-05-20T05:01:42.539Z,17.85
2023-05-20T05:03:07.562Z,17.92
2023-05-20T05:04:52.422Z,18.77
2023-05-20T05:06:37.787Z,19.74
2023-05-20T05:08:01.987Z,20.42
2023-05-20T05:09:37.915Z,20.34
2023-05-20T05:11:11.246Z,19.77
2023-05-20T05:12:44.584Z,19.01
2023-05-20T05:14:29.855Z,18.39
2023-05-20T05:15:56.084Z,18.06
2023-05-20T05:17:32.973Z,18.61
2023-05-20T05:19:09.433Z,19.53
2023-05-20T05:20:51.303Z,20.39
2023-05-20T05:22:37.126Z,20.39
2023-05-20T05:24:18.041Z,19.69
2023-05-20T05:26:11.029Z,18.97
2023-05-20T05:27:52.965Z,18.38
2023-05-20T05:29:27.393Z,18.68
2023-05-20T05:31:21.399Z,19.64
2023-05-20T05:32:56.896Z,20.54
2023-05-20T05:34:21.609Z,20.93
2023-05-20T05:36:13.485Z,20.50
2023-05-20T05:37:58.377Z,19.66
2023-05-20T05:39:25.081Z,19.00
2023-05-20T05:41:00.276Z,18.49
2023-05-20T05:42:22.503Z,18.49
2023-05-20T05:43:44.664Z,19.18
2023-05-20T05:45:30.834Z,20.10
2023-05-20T05:47:15.213Z,20.85
2023-05-20T05:48:51.056Z,20.79
2023-05-20T05:50:28.499Z,20.10
2023-05-20T05:52:02.763Z,19.48
2023-05-20T05:53:47.580Z,18.84
2023-05-20T05:55:28.920Z,18.40
2023-05-20T05:57:09.913Z,18.96
2023-05-20T05:58:51.300Z,19.97
2023-05-20T06:00:33.032Z,20.80
2023-05-20T06:02:18.376Z,20.79
2023-05-20T06:04:13.001Z,20.12
2023-05-20T06:05:48.717Z,19.32
2023-05-20T06:07:20.440Z,18.79
2023-05-20T06:08:56.459Z,18.46
2023-05-20T06:10:25.605Z,18.95
2023-05-20T06:12:16.448Z,19.98
2023-05-20T06:14:01.621Z,20.88
2023-05-20T06:15:46.610Z,20.73
2023-05-20T06:17:22.475Z,20.04
2023-05-20T06:18:55.857Z,19.48
2023-05-20T06:20:29.334Z,18.88
2023-05-20T06:22:10.501Z,18.41
2023-05-20T06:23:38.356Z,18.40
2023-05-20T06:25:14.998Z,19.29
2023-05-20T06:27:01.326Z,20.28
2023-05-20T06:28:26.089Z,20.97
2023-05-20T06:29:59.671Z,20.80
2023-05-20T06:31:48.298Z,20.27
2023-05-20T06:33:29.859Z,19.56
2023-05-20T06:35:18.293Z,19.05
2023-05-20T06:36:47.876Z,18.62
2023-05-20T06:38:09.984Z,18.32
2023-05-20T06:39:54.538Z,18.54
2023-05-20T06:41:39.796Z,19.66
2023-05-20T06:43:13.824Z,20.77
2023-05-20T06:44:54.890Z,21.04
2023-05-20T06:46:39.770Z,20.59
2023-05-20T06:48:29.212Z,19.91
2023-05-20T06:50:14.982Z,19.34
2023-05-20T06:51:44.131Z,18.95
2023-05-20T06:53:08.720Z,18.65
2023-05-20T06:54:42.721Z,18.70
2023-05-20T06:56:08.526Z,19.58
2023-05-20T06:57:42.005Z,20.66
2023-05-20T06:59:15.332Z,21.19
2023-05-20T07:00:37.873Z,20.96
2023-05-20T07:02:02.119Z,20.49
2023-05-20T07:03:55.821Z,19.97
2023-05-20T07:05:31.733Z,19.43
2023-05-20T07:07:12.470Z,19.07
2023-05-20T07:08:36.709Z,18.79
2023-05-20T07:10:10.755Z,18.55
2023-05-20T07:11:55.759Z,18.93
2023-05-20T07:13:31.842Z,19.99
2023-05-20T07:14:55.876Z,21.02
2023-05-20T07:16:32.396Z,21.42
2023-05-20T07:17:59.135Z,21.07
2023-05-20T07:19:43.109Z,20.57
2023-05-20T07:21:19.297Z,19.97
2023-05-20T07:23:15.665Z,19.53
2023-05-20T07:24:59.550Z,19.13
2023-05-20T07:26:36.110Z,18.88
2023-05-20T07:28:00.485Z,19.26
2023-05-20T07:29:24.473Z,20.19
2023-05-20T07:31:10.395Z,21.21
2023-05-20T07:33:00.776Z,21.50
2023-05-20T07:34:45.690Z,21.00
2023-05-20T07:36:26.976Z,20.41
2023-05-20T07:37:54.361Z,19.98
2023-05-20T07:39:27.805Z,19.62
2023-05-20T07:41:08.590Z,19.38
2023-05-20T07:42:41.767Z,19.73
2023-05-20T07:44:12.565Z,20.62
2023-05-20T07:45:49.142Z,21.64
2023-05-20T07:47:23.292Z,22.00
2023-05-20T07:48:49.750Z,21.66
2023-05-20T07:50:23.870Z,21.18
2023-05-20T07:51:49.174Z,20.81
2023-05-20T07:53:23.082Z,20.51
2023-05-20T07:54:56.837Z,20.17
2023-05-20T07:56:30.433Z,19.93
2023-05-20T07:58:03.866Z,19.67
2023-05-20T07:59:39.090Z,19.86
2023-05-20T08:01:24.642Z,20.90
2023-05-20T08:02:58.004Z,21.91
2023-05-20T08:04:40.342Z,22.26
2023-05-20T08:06:14.150Z,21.83
2023-05-20T08:07:47.404Z,21.34
2023-05-20T08:09:21.727Z,20.93
2023-05-20T08:11:09.443Z,20.60
2023-05-20T08:12:32.061Z,20.38
2023-05-20T08:14:17.325Z,20.48
2023-05-20T08:15:56.982Z,21.42
2023-05-20T08:17:30.390Z,22.56
2023-05-20T08:19:03.940Z,22.70
2023-05-20T08:20:31.630Z,22.41
2023-05-20T08:22:08.398Z,22.07
2023-05-20T08:23:56.826Z,21.66
2023-05-20T08:25:33.681Z,21.36
2023-05-20T08:27:16.274Z,21.11
2023-05-20T08:28:49.356Z,20.94
2023-05-20T08:30:26.113Z,20.80
2023-05-20T08:31:58.084Z,20.68
2023-05-20T08:33:43.522Z,20.55
2023-05-20T08:35:08.033Z,20.46
2023-05-20T08:36:34.813Z,20.37
2023-05-20T08:38:08.736Z,20.28
2023-05-20T08:39:49.396Z,20.20
2023-05-20T08:41:25.509Z,20.10
2023-05-20T08:42:59.325Z,20.18
2023-05-20T08:44:23.994Z,20.91
2023-05-20T08:46:09.388Z,22.04
2023-05-20T08:47:46.148Z,22.79
2023-05-20T08:49:31.652Z,22.60
2023-05-20T08:51:02.868Z,22.15
2023-05-20T08:52:38.713Z,21.79
2023-05-20T08:54:19.159Z,21.45
2023-05-20T08:55:42.725Z,21.20
2023-05-20T08:57:12.168Z,21.03
2023-05-20T08:59:02.082Z,20.87
2023-05-20T09:00:47.385Z,20.71
2023-05-20T09:02:23.245Z,20.58
2023-05-20T09:03:45.255Z,20.48
2023-05-20T09:05:21.237Z,20.39
2023-05-20T09:07:01.287Z,20.77
2023-05-20T09:08:27.630Z,21.82
2023-05-20T09:10:03.311Z,22.94
2023-05-20T09:11:25.237Z,23.26
2023-05-20T09:12:46.843Z,23.04
2023-05-20T09:17:25.486Z,21.89
2023-05-20T09:18:49.931Z,21.63
2023-05-20T09:20:32.817Z,21.43
2023-05-20T09:22:05.186Z,21.22
2023-05-20T09:23:30.727Z,21.06
2023-05-20T09:25:04.253Z,20.91
2023-05-20T09:26:40.502Z,20.80
2023-05-20T09:28:14.920Z,20.72
2023-05-20T09:30:00.414Z,21.03
2023-05-20T09:31:45.675Z,22.24
2023-05-20T09:33:20.794Z,23.32
2023-05-20T09:34:45.511Z,23.54
2023-05-20T09:36:10.651Z,23.27
2023-05-20T09:37:56.198Z,22.88
2023-05-20T09:39:32.390Z,22.51
2023-05-20T09:40:56.233Z,22.29
2023-05-20T09:42:18.184Z,22.10
2023-05-20T09:43:42.774Z,21.96
2023-05-20T09:45:16.215Z,21.86
2023-05-20T09:46:40.613Z,21.75
2023-05-20T09:48:05.021Z,21.66
2023-05-20T09:49:46.093Z,21.60
2023-05-20T09:51:08.282Z,21.96
2023-05-20T09:52:41.870Z,23.05
2023-05-20T09:54:03.942Z,23.96
2023-05-20T09:55:39.821Z,24.21
2023-05-20T09:57:12.155Z,24.00
2023-05-20T09:58:45.678Z,23.75
2023-05-20T10:00:22.265Z,23.53
2023-05-20T10:01:54.030Z,23.39
2023-05-20T10:03:30.477Z,23.29
2023-05-20T10:05:04.257Z,23.20
2023-05-20T10:06:38.210Z,23.14
2023-05-20T10:08:00.394Z,23.07
2023-05-20T10:09:31.932Z,22.99
2023-05-20T10:11:14.873Z,22.93
2023-05-20T10:12:36.336Z,22.88
2023-05-20T10:13:58.139Z,22.85
2023-05-20T10:15:43.239Z,22.86
2023-05-20T10:17:09.098Z,22.90
2023-05-20T10:18:31.447Z,22.95
2023-05-20T10:19:55.541Z,23.00
2023-05-20T10:21:24.771Z,23.00
2023-05-20T10:22:48.671Z,22.99
2023-05-20T10:24:22.251Z,22.98
2023-05-20T10:25:43.799Z,22.97
2023-05-20T10:27:06.432Z,22.93
2023-05-20T10:28:39.764Z,22.87
2023-05-20T10:30:12.986Z,22.82
2023-05-20T10:31:46.840Z,22.82
2023-05-20T10:33:20.921Z,22.85
2023-05-20T10:35:06.136Z,22.90
2023-05-20T10:36:41.439Z,22.92
2023-05-20T10:38:30.432Z,22.92
2023-05-20T10:39:59.960Z,22.91
2023-05-20T10:41:29.500Z,22.87
2023-05-20T10:43:01.061Z,22.81
2023-05-20T10:44:36.638Z,22.71
2023-05-20T10:46:34.928Z,22.62
2023-05-20T10:48:19.202Z,22.50
2023-05-20T10:49:41.216Z,22.39
2023-05-20T10:51:05.945Z,22.28
2023-05-20T10:52:59.835Z,22.17
2023-05-20T10:54:24.095Z,22.10
2023-05-20T10:55:55.799Z,22.51
2023-05-20T10:57:29.411Z,23.63
2023-05-20T10:58:50.755Z,24.50
2023-05-20T11:00:24.520Z,24.69
2023-05-20T11:01:53.592Z,24.44
2023-05-20T11:03:18.344Z,24.14
2023-05-20T11:05:04.210Z,23.80
2023-05-20T11:06:27.235Z,23.53
2023-05-20T11:08:00.445Z,23.31
2023-05-20T11:09:31.899Z,23.09
2023-05-20T11:11:13.342Z,22.91
2023-05-20T11:12:58.572Z,22.71
2023-05-20T11:14:35.122Z,22.53
2023-05-20T11:15:59.146Z,22.40
2023-05-20T11:17:21.347Z,22.30
2023-05-20T11:18:58.061Z,22.21
2023-05-20T11:20:20.270Z,22.14
2023-05-20T11:21:53.750Z,22.08
2023-05-20T11:23:23.721Z,22.02
2023-05-20T11:25:08.778Z,21.93
2023-05-20T11:26:45.500Z,22.42
2023-05-20T11:28:27.321Z,23.48
2023-05-20T11:29:56.205Z,24.70
2023-05-20T11:31:37.788Z,24.93
2023-05-20T11:33:23.197Z,24.61
2023-05-20T11:34:47.902Z,24.27
2023-05-20T11:36:27.811Z,24.10
2023-05-20T11:37:52.535Z,24.08
2023-05-20T11:39:28.879Z,24.15
2023-05-20T11:40:53.415Z,24.29
2023-05-20T11:42:38.668Z,24.48
2023-05-20T11:44:13.549Z,24.68
2023-05-20T11:45:47.159Z,24.87
2023-05-20T11:47:32.481Z,25.05
2023-05-20T11:49:17.994Z,25.13
2023-05-20T11:50:40.640Z,25.11
2023-05-20T11:52:25.654Z,25.04
2023-05-20T11:53:49.609Z,24.95
2023-05-20T11:55:11.896Z,24.89
2023-05-20T11:56:45.376Z,24.85
2023-05-20T11:58:07.674Z,24.81
2023-05-20T11:59:31.624Z,24.77
2023-05-20T12:01:22.275Z,24.73
2023-05-20T12:03:11.954Z,24.68
2023-05-20T12:04:45.574Z,24.64
2023-05-20T12:06:07.330Z,24.64
2023-05-20T12:07:34.208Z,24.65
2023-05-20T12:09:09.745Z,24.70
2023-05-20T12:10:34.294Z,24.81
2023-05-20T12:12:17.256Z,24.95
2023-05-20T12:13:39.393Z,24.99
2023-05-20T12:15:26.430Z,24.99
2023-05-20T12:16:59.884Z,25.02
2023-05-20T12:18:33.858Z,25.00
2023-05-20T12:19:56.015Z,24.99
2023-05-20T12:21:29.840Z,24.95
2023-05-20T12:22:51.482Z,24.92
2023-05-20T12:24:15.542Z,24.95
2023-05-20T12:25:37.426Z,25.04
2023-05-20T12:27:01.359Z,25.20
2023-05-20T12:28:25.707Z,25.42
2023-05-20T12:30:11.477Z,25.68
2023-05-20T12:31:35.052Z,25.85
2023-05-20T12:32:57.379Z,25.93
2023-05-20T12:34:20.395Z,25.96
2023-05-20T12:35:44.573Z,25.94
2023-05-20T12:37:13.638Z,25.88
2023-05-20T12:38:36.121Z,25.81
2023-05-20T12:40:16.845Z,25.72
2023-05-20T12:41:50.338Z,25.71
2023-05-20T12:43:12.366Z,25.73
2023-05-20T12:44:34.291Z,25.75
2023-05-20T12:46:09.985Z,25.73
2023-05-20T12:47:50.727Z,25.69
2023-05-20T12:49:24.657Z,25.74
2023-05-20T12:51:00.538Z,25.81
2023-05-20T12:52:41.657Z,25.86
2023-05-20T12:54:03.517Z,25.86
2023-05-20T12:55:27.522Z,25.87
2023-05-20T12:57:01.163Z,25.96
2023-05-20T12:58:34.683Z,26.05
2023-05-20T13:00:01.418Z,26.13
2023-05-20T13:01:25.740Z,26.20
2023-05-20T13:02:59.283Z,26.21
2023-05-20T13:04:32.737Z,26.13
2023-05-20T13:06:05.736Z,26.08
2023-05-20T13:07:29.891Z,26.06
2023-05-20T13:08:54.240Z,26.07
2023-05-20T13:10:27.796Z,26.14
2023-05-20T13:11:49.681Z,26.25
2023-05-20T13:13:28.809Z,26.40
2023-05-20T13:15:06.625Z,26.62
2023-05-20T13:16:39.966Z,26.83
2023-05-20T13:18:15.687Z,27.08
2023-05-20T13:19:49.400Z,27.41
2023-05-20T13:21:25.356Z,27.66
2023-05-20T13:22:46.926Z,27.91
2023-05-20T13:24:09.141Z,28.14
2023-05-20T13:25:42.872Z,28.41
2023-05-20T13:27:14.376Z,28.57
2023-05-20T13:28:36.941Z,28.58
2023-05-20T13:30:06.180Z,28.53
2023-05-20T13:31:40.050Z,28.44
2023-05-20T13:33:04.183Z,28.28
2023-05-20T13:34:28.845Z,28.21
2023-05-20T13:35:50.378Z,28.10
2023-05-20T13:37:14.404Z,27.94
2023-05-20T13:38:59.610Z,27.83
2023-05-20T13:40:36.435Z,27.83
2023-05-20T13:42:21.929Z,27.85
2023-05-20T13:44:02.771Z,27.90
2023-05-20T13:45:36.514Z,27.92
2023-05-20T13:47:00.573Z,27.89
2023-05-20T13:48:33.835Z,27.91
2023-05-20T13:50:07.452Z,27.95
2023-05-20T13:51:52.916Z,28.06
2023-05-20T13:53:28.696Z,28.22
2023-05-20T13:55:02.272Z,28.40
2023-05-20T13:56:36.079Z,28.55
2023-05-20T13:58:09.360Z,28.79
2023-05-20T13:59:53.956Z,28.97
2023-05-20T14:01:35.571Z,29.29
2023-05-20T14:03:10.394Z,29.58
2023-05-20T14:04:56.949Z,29.90
2023-05-20T14:06:32.926Z,30.22
2023-05-20T14:07:59.455Z,30.46
2023-05-20T14:09:28.713Z,30.63
2023-05-20T14:10:52.293Z,30.67
2023-05-20T14:12:37.477Z,30.67
2023-05-20T14:14:06.338Z,30.65
2023-05-20T14:15:33.331Z,30.56
2023-05-20T14:17:18.589Z,30.42
2023-05-20T14:18:59.509Z,30.23
2023-05-20T14:20:33.588Z,30.04
2023-05-20T14:22:18.847Z,29.89
2023-05-20T14:23:52.204Z,29.77
2023-05-20T14:25:16.609Z,29.70
2023-05-20T14:26:45.997Z,29.71
2023-05-20T14:28:07.771Z,29.77
2023-05-20T14:29:29.982Z,29.84
2023-05-20T14:31:05.517Z,29.93
2023-05-20T14:32:51.388Z,30.10
2023-05-20T14:34:25.113Z,30.32
2023-05-20T14:35:51.406Z,30.54
2023-05-20T14:37:27.911Z,30.74
2023-05-20T14:38:59.483Z,30.95
2023-05-20T14:40:33.293Z,31.21
2023-05-20T14:41:55.276Z,31.42
2023-05-20T14:43:40.616Z,31.67
2023-05-20T14:45:06.912Z,31.90
2023-05-20T14:46:40.571Z,32.05
2023-05-20T14:48:23.356Z,32.17
2023-05-20T14:50:04.093Z,32.22
2023-05-20T14:51:58.946Z,32.35
2023-05-20T14:53:32.500Z,32.47
2023-05-20T14:55:08.291Z,32.58
2023-05-20T14:56:41.897Z,32.69
2023-05-20T14:58:15.647Z,32.75
2023-05-20T14:59:39.677Z,32.71
2023-05-20T15:01:15.391Z,32.65
2023-05-20T15:02:37.919Z,32.55
2023-05-20T15:04:02.248Z,32.49
2023-05-20T15:05:47.257Z,32.50
2023-05-20T15:07:30.320Z,32.56
2023-05-20T15:08:52.131Z,32.63
2023-05-20T15:10:26.137Z,32.72
2023-05-20T15:11:55.465Z,32.79
2023-05-20T15:13:28.890Z,32.83
2023-05-20T15:15:22.248Z,32.87
2023-05-20T15:16:58.108Z,32.87
2023-05-20T15:18:32.004Z,32.84
2023-05-20T15:20:13.004Z,32.87
2023-05-20T15:21:58.459Z,32.92
2023-05-20T15:23:34.529Z,32.94
2023-05-20T15:25:09.827Z,32.96
2023-05-20T15:27:04.937Z,33.00
2023-05-20T15:28:38.234Z,33.01
2023-05-20T15:30:11.604Z,32.99
2023-05-20T15:31:52.821Z,33.03
2023-05-20T15:33:25.270Z,33.12
2023-05-20T15:35:02.579Z,33.21
2023-05-20T15:36:24.929Z,33.32
2023-05-20T15:37:46.675Z,33.40
2023-05-20T15:39:22.863Z,33.46
2023-05-20T15:40:59.192Z,33.48
2023-05-20T15:42:23.631Z,33.46
2023-05-20T15:43:56.813Z,33.41
2023-05-20T15:45:30.656Z,33.33
2023-05-20T15:46:52.134Z,33.24
2023-05-20T15:48:26.823Z,33.15
2023-05-20T15:50:04.284Z,32.98
2023-05-20T15:51:37.898Z,32.68
2023-05-20T15:53:00.006Z,32.41
2023-05-20T15:54:21.908Z,32.18
2023-05-20T15:55:51.479Z,31.97
2023-05-20T15:57:32.726Z,31.70
2023-05-20T15:59:14.889Z,31.47
2023-05-20T16:00:39.444Z,31.18
2023-05-20T16:02:26.853Z,30.88
2023-05-20T16:04:10.041Z,30.60
2023-05-20T16:05:32.209Z,30.30
2023-05-20T16:06:56.021Z,30.07
2023-05-20T16:08:25.988Z,29.84
2023-05-20T16:09:57.633Z,29.60
2023-05-20T16:11:22.814Z,29.37
2023-05-20T16:12:49.287Z,29.15
2023-05-20T16:14:23.157Z,28.92
2023-05-20T16:15:46.968Z,28.73
2023-05-20T16:17:21.717Z,28.50
2023-05-20T16:18:52.952Z,28.28
2023-05-20T16:20:38.412Z,28.04
2023-05-20T16:22:20.060Z,27.81
2023-05-20T16:23:49.152Z,27.57
2023-05-20T16:25:15.161Z,27.39
2023-05-20T16:26:44.319Z,27.20
2023-05-20T16:28:25.315Z,27.00
2023-05-20T16:30:10.397Z,26.79
2023-05-20T16:31:46.314Z,26.59
2023-05-20T16:33:21.888Z,26.36
2023-05-20T16:34:57.746Z,26.20
2023-05-20T16:36:33.271Z,25.99
2023-05-20T16:38:08.839Z,25.85
2023-05-20T16:39:38.288Z,25.69
2023-05-20T16:41:11.546Z,25.53
2023-05-20T16:42:58.578Z,25.40
2023-05-20T16:44:39.386Z,25.24
2023-05-20T16:46:14.529Z,25.10
2023-05-20T16:47:36.967Z,24.98
2023-05-20T16:48:58.813Z,24.86
2023-05-20T16:50:22.927Z,24.76
2023-05-20T16:51:56.381Z,24.66
2023-05-20T16:53:25.359Z,24.55
2023-05-20T16:55:15.003Z,24.45
2023-05-20T16:56:50.879Z,24.35
2023-05-20T16:58:33.903Z,24.26
2023-05-20T16:59:58.430Z,24.17
2023-05-20T17:01:44.091Z,24.09
2023-05-20T17:03:18.086Z,23.99
2023-05-20T17:04:39.501Z,23.91
2023-05-20T17:06:03.594Z,23.84
2023-05-20T17:07:48.735Z,23.75
2023-05-20T17:09:18.057Z,23.66
2023-05-20T17:10:54.366Z,23.60
2023-05-20T17:12:28.316Z,23.52
2023-05-20T17:14:22.021Z,23.45
2023-05-20T17:15:51.055Z,23.37
2023-05-20T17:17:31.855Z,23.27
2023-05-20T17:18:56.227Z,23.20
2023-05-20T17:20:29.573Z,23.14
2023-05-20T17:21:50.920Z,23.08
2023-05-20T17:23:14.691Z,23.03
2023-05-20T17:24:41.282Z,22.98
2023-05-20T17:26:25.317Z,22.93
2023-05-20T17:28:19.960Z,22.84
2023-05-20T17:30:01.209Z,22.75
2023-05-20T17:31:23.278Z,22.70
2023-05-20T17:33:08.997Z,22.64
2023-05-20T17:34:33.288Z,22.58
2023-05-20T17:36:02.377Z,22.52
2023-05-20T17:37:24.393Z,22.46
2023-05-20T17:39:18.451Z,22.39
2023-05-20T17:40:53.974Z,22.32
2023-05-20T17:42:28.015Z,22.23
2023-05-20T17:44:03.502Z,22.15
2023-05-20T17:45:48.641Z,22.07
2023-05-20T17:47:21.620Z,22.01
2023-05-20T17:48:55.065Z,21.94
2023-05-20T17:50:35.844Z,21.89
2023-05-20T17:52:13.034Z,21.83
2023-05-20T17:53:58.620Z,21.79
2023-05-20T17:55:39.686Z,21.74
2023-05-20T17:57:22.567Z,21.69
2023-05-20T17:58:46.879Z,21.64
2023-05-20T18:00:11.040Z,21.61
2023-05-20T18:02:00.440Z,21.56
2023-05-20T18:03:46.051Z,21.52
2023-05-20T18:05:19.792Z,21.48
2023-05-20T18:07:04.762Z,21.44
2023-05-20T18:08:28.923Z,21.40
2023-05-20T18:10:10.770Z,21.38
2023-05-20T18:11:47.152Z,21.93
2023-05-20T18:13:22.746Z,23.15
2023-05-20T18:14:51.593Z,24.03
2023-05-20T18:16:27.492Z,24.08
2023-05-20T18:17:49.167Z,23.78
2023-05-20T18:19:29.071Z,23.44
2023-05-20T18:21:13.680Z,23.04
2023-05-20T18:22:58.882Z,22.75
2023-05-20T18:24:34.984Z,22.51
2023-05-20T18:25:59.096Z,22.35
2023-05-20T18:27:21.163Z,22.22
2023-05-20T18:28:50.472Z,22.09
2023-05-20T18:30:17.822Z,21.97
2023-05-20T18:31:42.590Z,21.86
2023-05-20T18:33:04.967Z,21.74
2023-05-20T18:34:29.675Z,21.64
2023-05-20T18:35:54.572Z,21.54
2023-05-20T18:37:35.501Z,21.43
2023-05-20T18:38:59.191Z,21.33
2023-05-20T18:40:21.309Z,21.25
2023-05-20T18:41:50.628Z,21.62
2023-05-20T18:43:19.660Z,22.59
2023-05-20T18:44:43.709Z,23.59
2023-05-20T18:46:05.716Z,23.94
2023-05-20T18:47:50.913Z,23.67
2023-05-20T18:49:13.193Z,23.22
2023-05-20T18:50:45.225Z,22.84
2023-05-20T18:52:21.138Z,22.48
2023-05-20T18:53:43.081Z,22.17
2023-05-20T18:55:18.943Z,21.91
2023-05-20T18:57:00.214Z,21.69
2023-05-20T18:58:24.193Z,21.51
2023-05-20T18:59:47.814Z,21.37
2023-05-20T19:01:33.598Z,21.20
2023-05-20T19:02:58.712Z,21.05
2023-05-20T19:04:30.318Z,21.03
2023-05-20T19:05:52.191Z,21.71
2023-05-20T19:07:37.637Z,22.78
2023-05-20T19:09:19.274Z,23.60
2023-05-20T19:10:43.489Z,23.51
2023-05-20T19:12:24.594Z,23.05
2023-05-20T19:13:58.366Z,22.55
2023-05-20T19:15:32.349Z,22.16
2023-05-20T19:17:04.421Z,21.87
2023-05-20T19:18:29.203Z,21.60
2023-05-20T19:20:03.859Z,21.39
2023-05-20T19:21:44.582Z,21.14
2023-05-20T19:23:10.947Z,20.96
2023-05-20T19:24:35.499Z,20.81
2023-05-20T19:26:02.234Z,21.16
2023-05-20T19:27:36.237Z,22.18
2023-05-20T19:29:16.529Z,23.20
2023-05-20T19:30:41.649Z,23.54
2023-05-20T19:32:14.877Z,23.25
2023-05-20T19:33:49.344Z,22.68
2023-05-20T19:35:23.265Z,22.22
2023-05-20T19:36:46.725Z,21.87
2023-05-20T19:38:23.653Z,21.54
2023-05-20T19:39:52.840Z,21.27
2023-05-20T19:41:14.977Z,21.06
2023-05-20T19:42:36.936Z,20.86
2023-05-20T19:44:12.811Z,20.88
2023-05-20T19:45:36.697Z,21.58
2023-05-20T19:47:10.689Z,22.51
2023-05-20T19:48:46.106Z,23.36
2023-05-20T19:50:10.374Z,23.27
2023-05-20T19:51:53.994Z,22.84
2023-05-20T19:53:29.218Z,22.19
2023-05-20T19:55:05.593Z,21.75
2023-05-20T19:56:30.087Z,21.41
2023-05-20T19:57:53.520Z,21.14
2023-05-20T19:59:38.827Z,20.87
2023-05-20T20:01:12.633Z,20.68
2023-05-20T20:02:59.214Z,21.27
2023-05-20T20:04:21.310Z,22.31
2023-05-20T20:05:57.048Z,23.17
2023-05-20T20:07:19.283Z,23.24
2023-05-20T20:09:12.227Z,22.80
2023-05-20T20:10:46.757Z,22.21
2023-05-20T20:12:20.343Z,21.67
2023-05-20T20:13:51.790Z,21.33
2023-05-20T20:15:32.968Z,20.97
2023-05-20T20:17:26.351Z,20.68
2023-05-20T20:19:07.364Z,21.00
2023-05-20T20:20:41.272Z,21.96
2023-05-20T20:22:14.643Z,22.97
2023-05-20T20:23:50.446Z,23.13
2023-05-20T20:25:27.382Z,22.73